sensor_id;sensor_type;location;lat;lon;timestamp;P1;durP1;ratioP1;P2;durP2;ratioP2
32407;SDS011;18869;55.970;37.502;2023-12-04T00:00:44;12.20;;;9.30;;
32407;SDS011;18869;55.970;37.502;2023-12-04T00:03:12;10.53;;;9.00;;
32407;SDS011;18869;55.970;37.502;2023-12-04T00:05:41;12.13;;;8.73;;
32407;SDS011;18869;55.970;37.502;2023-12-04T00:08:08;9.73;;;8.47;;
32407;SDS011;18869;55.970;37.502;2023-12-04T00:10:36;15.03;;;10.97;;
32407;SDS011;18869;55.970;37.502;2023-12-04T00:13:04;13.03;;;10.03;;
32407;SDS011;18869;55.970;37.502;2023-12-04T00:15:33;12.80;;;10.80;;
32407;SDS011;18869;55.970;37.502;2023-12-04T00:18:00;14.50;;;10.27;;
32407;SDS011;18869;55.970;37.502;2023-12-04T00:20:28;11.93;;;8.87;;
32407;SDS011;18869;55.970;37.502;2023-12-04T00:22:55;11.97;;;10.77;;
32407;SDS011;18869;55.970;37.502;2023-12-04T00:25:23;12.47;;;9.73;;
32407;SDS011;18869;55.970;37.502;2023-12-04T00:27:50;11.43;;;9.80;;
32407;SDS011;18869;55.970;37.502;2023-12-04T00:30:20;9.87;;;8.83;;
32407;SDS011;18869;55.970;37.502;2023-12-04T00:32:48;11.03;;;9.93;;
32407;SDS011;18869;55.970;37.502;2023-12-04T00:35:15;11.73;;;8.47;;
32407;SDS011;18869;55.970;37.502;2023-12-04T00:37:42;9.20;;;8.33;;
32407;SDS011;18869;55.970;37.502;2023-12-04T00:40:10;12.20;;;10.00;;
32407;SDS011;18869;55.970;37.502;2023-12-04T00:42:37;10.63;;;9.43;;
32407;SDS011;18869;55.970;37.502;2023-12-04T00:45:05;11.27;;;8.93;;
32407;SDS011;18869;55.970;37.502;2023-12-04T00:47:34;11.23;;;10.03;;
32407;SDS011;18869;55.970;37.502;2023-12-04T00:50:01;10.87;;;9.20;;
32407;SDS011;18869;55.970;37.502;2023-12-04T00:52:30;10.23;;;9.13;;
32407;SDS011;18869;55.970;37.502;2023-12-04T00:54:57;13.27;;;9.77;;
32407;SDS011;18869;55.970;37.502;2023-12-04T00:57:26;12.03;;;10.53;;
32407;SDS011;18869;55.970;37.502;2023-12-04T00:59:53;10.47;;;9.07;;
32407;SDS011;18869;55.970;37.502;2023-12-04T01:05:18;10.73;;;9.77;;
32407;SDS011;18869;55.970;37.502;2023-12-04T01:07:46;12.77;;;9.77;;
32407;SDS011;18869;55.970;37.502;2023-12-04T01:10:12;11.97;;;9.47;;
32407;SDS011;18869;55.970;37.502;2023-12-04T01:12:39;12.23;;;10.47;;
32407;SDS011;18869;55.970;37.502;2023-12-04T01:15:07;14.90;;;11.07;;
32407;SDS011;18869;55.970;37.502;2023-12-04T01:17:35;11.77;;;9.67;;
32407;SDS011;18869;55.970;37.502;2023-12-04T01:20:03;11.83;;;9.50;;
32407;SDS011;18869;55.970;37.502;2023-12-04T01:22:32;12.43;;;9.90;;
32407;SDS011;18869;55.970;37.502;2023-12-04T01:24:59;13.27;;;10.30;;
32407;SDS011;18869;55.970;37.502;2023-12-04T01:27:29;13.63;;;12.07;;
32407;SDS011;18869;55.970;37.502;2023-12-04T01:29:56;13.97;;;10.07;;
32407;SDS011;18869;55.970;37.502;2023-12-04T01:32:23;11.90;;;9.53;;
32407;SDS011;18869;55.970;37.502;2023-12-04T01:34:50;13.20;;;9.53;;
32407;SDS011;18869;55.970;37.502;2023-12-04T01:37:17;16.70;;;10.67;;
32407;SDS011;18869;55.970;37.502;2023-12-04T01:39:45;23.03;;;13.97;;
32407;SDS011;18869;55.970;37.502;2023-12-04T01:42:12;22.23;;;15.10;;
32407;SDS011;18869;55.970;37.502;2023-12-04T01:44:40;17.63;;;11.67;;
32407;SDS011;18869;55.970;37.502;2023-12-04T01:47:07;16.93;;;12.33;;
32407;SDS011;18869;55.970;37.502;2023-12-04T01:49:34;17.83;;;12.10;;
32407;SDS011;18869;55.970;37.502;2023-12-04T01:52:01;14.70;;;10.23;;
32407;SDS011;18869;55.970;37.502;2023-12-04T01:54:30;16.23;;;11.63;;
32407;SDS011;18869;55.970;37.502;2023-12-04T01:56:59;17.83;;;13.03;;
32407;SDS011;18869;55.970;37.502;2023-12-04T01:59:26;14.90;;;12.20;;
32407;SDS011;18869;55.970;37.502;2023-12-04T02:01:55;13.30;;;10.80;;
32407;SDS011;18869;55.970;37.502;2023-12-04T02:04:22;15.90;;;10.37;;
32407;SDS011;18869;55.970;37.502;2023-12-04T02:06:50;13.50;;;10.57;;
32407;SDS011;18869;55.970;37.502;2023-12-04T02:09:17;12.43;;;10.43;;
32407;SDS011;18869;55.970;37.502;2023-12-04T02:11:45;14.57;;;10.80;;
32407;SDS011;18869;55.970;37.502;2023-12-04T02:14:13;15.27;;;11.77;;
32407;SDS011;18869;55.970;37.502;2023-12-04T02:16:41;12.10;;;10.57;;
32407;SDS011;18869;55.970;37.502;2023-12-04T02:19:10;11.70;;;10.50;;
32407;SDS011;18869;55.970;37.502;2023-12-04T02:21:42;15.43;;;11.63;;
32407;SDS011;18869;55.970;37.502;2023-12-04T02:24:12;13.83;;;11.23;;
32407;SDS011;18869;55.970;37.502;2023-12-04T02:26:42;14.43;;;11.37;;
32407;SDS011;18869;55.970;37.502;2023-12-04T02:29:14;12.93;;;10.73;;
32407;SDS011;18869;55.970;37.502;2023-12-04T02:31:43;13.97;;;10.13;;
32407;SDS011;18869;55.970;37.502;2023-12-04T02:34:10;14.83;;;10.50;;
32407;SDS011;18869;55.970;37.502;2023-12-04T02:36:39;14.43;;;11.17;;
32407;SDS011;18869;55.970;37.502;2023-12-04T02:39:07;14.57;;;10.03;;
32407;SDS011;18869;55.970;37.502;2023-12-04T02:41:35;17.13;;;13.57;;
32407;SDS011;18869;55.970;37.502;2023-12-04T02:44:02;19.90;;;12.67;;
32407;SDS011;18869;55.970;37.502;2023-12-04T02:46:29;19.17;;;11.57;;
32407;SDS011;18869;55.970;37.502;2023-12-04T02:48:57;18.07;;;12.57;;
32407;SDS011;18869;55.970;37.502;2023-12-04T02:51:25;17.57;;;12.93;;
32407;SDS011;18869;55.970;37.502;2023-12-04T02:53:52;21.73;;;14.70;;
32407;SDS011;18869;55.970;37.502;2023-12-04T02:56:19;25.87;;;16.27;;
32407;SDS011;18869;55.970;37.502;2023-12-04T02:58:47;15.47;;;11.47;;
32407;SDS011;18869;55.970;37.502;2023-12-04T03:01:14;14.60;;;11.47;;
32407;SDS011;18869;55.970;37.502;2023-12-04T03:03:41;15.73;;;11.33;;
32407;SDS011;18869;55.970;37.502;2023-12-04T03:06:09;15.73;;;11.83;;
32407;SDS011;18869;55.970;37.502;2023-12-04T03:08:36;12.80;;;11.50;;
32407;SDS011;18869;55.970;37.502;2023-12-04T03:11:03;12.27;;;10.97;;
32407;SDS011;18869;55.970;37.502;2023-12-04T03:13:31;15.23;;;11.00;;
32407;SDS011;18869;55.970;37.502;2023-12-04T03:15:59;12.80;;;11.50;;
32407;SDS011;18869;55.970;37.502;2023-12-04T03:18:26;13.60;;;10.70;;
32407;SDS011;18869;55.970;37.502;2023-12-04T03:20:54;12.50;;;10.73;;
32407;SDS011;18869;55.970;37.502;2023-12-04T03:23:21;15.07;;;11.30;;
32407;SDS011;18869;55.970;37.502;2023-12-04T03:25:48;14.17;;;11.37;;
32407;SDS011;18869;55.970;37.502;2023-12-04T03:28:16;13.27;;;11.50;;
32407;SDS011;18869;55.970;37.502;2023-12-04T03:30:48;13.63;;;11.20;;
32407;SDS011;18869;55.970;37.502;2023-12-04T03:33:17;16.73;;;11.53;;
32407;SDS011;18869;55.970;37.502;2023-12-04T03:35:44;15.60;;;11.73;;
32407;SDS011;18869;55.970;37.502;2023-12-04T03:38:11;15.73;;;12.27;;
32407;SDS011;18869;55.970;37.502;2023-12-04T03:40:38;14.63;;;10.83;;
32407;SDS011;18869;55.970;37.502;2023-12-04T03:43:05;14.37;;;11.80;;
32407;SDS011;18869;55.970;37.502;2023-12-04T03:45:33;14.90;;;11.83;;
32407;SDS011;18869;55.970;37.502;2023-12-04T03:48:00;12.67;;;10.73;;
32407;SDS011;18869;55.970;37.502;2023-12-04T03:50:27;13.63;;;11.37;;
32407;SDS011;18869;55.970;37.502;2023-12-04T03:52:54;15.83;;;10.70;;
32407;SDS011;18869;55.970;37.502;2023-12-04T03:55:22;14.97;;;12.13;;
32407;SDS011;18869;55.970;37.502;2023-12-04T03:57:49;13.77;;;12.20;;
32407;SDS011;18869;55.970;37.502;2023-12-04T04:00:17;15.07;;;11.33;;
32407;SDS011;18869;55.970;37.502;2023-12-04T04:02:45;13.60;;;11.23;;
32407;SDS011;18869;55.970;37.502;2023-12-04T04:05:12;17.60;;;11.80;;
32407;SDS011;18869;55.970;37.502;2023-12-04T04:07:40;16.93;;;12.43;;
32407;SDS011;18869;55.970;37.502;2023-12-04T04:10:07;19.43;;;11.53;;
32407;SDS011;18869;55.970;37.502;2023-12-04T04:12:34;16.17;;;12.43;;
32407;SDS011;18869;55.970;37.502;2023-12-04T04:15:02;18.87;;;12.77;;
32407;SDS011;18869;55.970;37.502;2023-12-04T04:17:31;15.80;;;11.67;;
32407;SDS011;18869;55.970;37.502;2023-12-04T04:19:59;14.70;;;11.57;;
32407;SDS011;18869;55.970;37.502;2023-12-04T04:22:26;17.70;;;13.87;;
32407;SDS011;18869;55.970;37.502;2023-12-04T04:24:57;18.13;;;11.70;;
32407;SDS011;18869;55.970;37.502;2023-12-04T04:27:24;17.80;;;12.37;;
32407;SDS011;18869;55.970;37.502;2023-12-04T04:29:51;17.40;;;12.50;;
32407;SDS011;18869;55.970;37.502;2023-12-04T04:32:18;16.77;;;13.10;;
32407;SDS011;18869;55.970;37.502;2023-12-04T04:34:45;19.93;;;12.70;;
32407;SDS011;18869;55.970;37.502;2023-12-04T04:37:13;15.37;;;13.07;;
32407;SDS011;18869;55.970;37.502;2023-12-04T04:39:40;15.97;;;13.23;;
32407;SDS011;18869;55.970;37.502;2023-12-04T04:42:08;17.00;;;12.50;;
32407;SDS011;18869;55.970;37.502;2023-12-04T04:44:35;20.83;;;13.30;;
32407;SDS011;18869;55.970;37.502;2023-12-04T04:47:02;17.43;;;13.00;;
32407;SDS011;18869;55.970;37.502;2023-12-04T04:49:34;21.23;;;13.20;;
32407;SDS011;18869;55.970;37.502;2023-12-04T04:52:02;17.57;;;12.60;;
32407;SDS011;18869;55.970;37.502;2023-12-04T04:54:30;15.70;;;11.27;;
32407;SDS011;18869;55.970;37.502;2023-12-04T04:56:58;18.50;;;12.83;;
32407;SDS011;18869;55.970;37.502;2023-12-04T04:59:25;18.23;;;13.77;;
32407;SDS011;18869;55.970;37.502;2023-12-04T05:01:56;21.63;;;12.93;;
32407;SDS011;18869;55.970;37.502;2023-12-04T05:04:23;18.53;;;12.33;;
32407;SDS011;18869;55.970;37.502;2023-12-04T05:06:50;18.07;;;12.47;;
32407;SDS011;18869;55.970;37.502;2023-12-04T05:09:17;19.83;;;13.70;;
32407;SDS011;18869;55.970;37.502;2023-12-04T05:11:44;17.10;;;12.50;;
32407;SDS011;18869;55.970;37.502;2023-12-04T05:14:12;21.30;;;13.40;;
32407;SDS011;18869;55.970;37.502;2023-12-04T05:16:40;21.27;;;13.73;;
32407;SDS011;18869;55.970;37.502;2023-12-04T05:19:06;17.90;;;13.53;;
32407;SDS011;18869;55.970;37.502;2023-12-04T05:21:34;15.87;;;12.80;;
32407;SDS011;18869;55.970;37.502;2023-12-04T05:24:02;17.53;;;11.47;;
32407;SDS011;18869;55.970;37.502;2023-12-04T05:26:29;20.17;;;13.00;;
32407;SDS011;18869;55.970;37.502;2023-12-04T05:28:57;18.27;;;12.50;;
32407;SDS011;18869;55.970;37.502;2023-12-04T05:31:27;19.33;;;13.73;;
32407;SDS011;18869;55.970;37.502;2023-12-04T05:33:54;17.73;;;13.00;;
32407;SDS011;18869;55.970;37.502;2023-12-04T05:36:22;19.97;;;12.67;;
32407;SDS011;18869;55.970;37.502;2023-12-04T05:38:50;21.70;;;14.20;;
32407;SDS011;18869;55.970;37.502;2023-12-04T05:41:19;22.80;;;14.43;;
32407;SDS011;18869;55.970;37.502;2023-12-04T05:43:49;18.70;;;13.50;;
32407;SDS011;18869;55.970;37.502;2023-12-04T05:46:16;16.87;;;13.47;;
32407;SDS011;18869;55.970;37.502;2023-12-04T05:48:44;17.87;;;13.00;;
32407;SDS011;18869;55.970;37.502;2023-12-04T05:51:13;17.87;;;12.47;;
32407;SDS011;18869;55.970;37.502;2023-12-04T05:53:43;18.70;;;13.27;;
32407;SDS011;18869;55.970;37.502;2023-12-04T05:56:13;21.47;;;15.47;;
32407;SDS011;18869;55.970;37.502;2023-12-04T05:58:40;19.53;;;12.60;;
32407;SDS011;18869;55.970;37.502;2023-12-04T06:01:09;21.37;;;14.20;;
32407;SDS011;18869;55.970;37.502;2023-12-04T06:03:37;21.83;;;14.23;;
32407;SDS011;18869;55.970;37.502;2023-12-04T06:06:07;20.10;;;12.60;;
32407;SDS011;18869;55.970;37.502;2023-12-04T06:08:39;23.40;;;13.00;;
32407;SDS011;18869;55.970;37.502;2023-12-04T06:11:09;21.13;;;12.67;;
32407;SDS011;18869;55.970;37.502;2023-12-04T06:13:37;20.93;;;13.97;;
32407;SDS011;18869;55.970;37.502;2023-12-04T06:16:04;24.80;;;15.33;;
32407;SDS011;18869;55.970;37.502;2023-12-04T06:18:34;17.50;;;13.30;;
32407;SDS011;18869;55.970;37.502;2023-12-04T06:21:02;23.50;;;14.60;;
32407;SDS011;18869;55.970;37.502;2023-12-04T06:23:31;19.07;;;13.40;;
32407;SDS011;18869;55.970;37.502;2023-12-04T06:26:03;19.40;;;12.33;;
32407;SDS011;18869;55.970;37.502;2023-12-04T06:28:31;20.83;;;13.57;;
32407;SDS011;18869;55.970;37.502;2023-12-04T06:30:59;19.17;;;12.43;;
32407;SDS011;18869;55.970;37.502;2023-12-04T06:33:27;22.17;;;14.37;;
32407;SDS011;18869;55.970;37.502;2023-12-04T06:35:54;18.97;;;12.77;;
32407;SDS011;18869;55.970;37.502;2023-12-04T06:38:23;19.43;;;15.07;;
32407;SDS011;18869;55.970;37.502;2023-12-04T06:40:52;19.83;;;13.67;;
32407;SDS011;18869;55.970;37.502;2023-12-04T06:43:23;17.80;;;13.37;;
32407;SDS011;18869;55.970;37.502;2023-12-04T06:45:52;19.20;;;14.27;;
32407;SDS011;18869;55.970;37.502;2023-12-04T06:48:23;19.13;;;13.63;;
32407;SDS011;18869;55.970;37.502;2023-12-04T06:50:51;18.73;;;14.07;;
32407;SDS011;18869;55.970;37.502;2023-12-04T06:53:20;17.60;;;13.83;;
32407;SDS011;18869;55.970;37.502;2023-12-04T06:55:49;22.63;;;13.80;;
32407;SDS011;18869;55.970;37.502;2023-12-04T06:58:17;19.57;;;12.90;;
32407;SDS011;18869;55.970;37.502;2023-12-04T07:00:50;22.10;;;15.37;;
32407;SDS011;18869;55.970;37.502;2023-12-04T07:03:18;17.77;;;13.60;;
32407;SDS011;18869;55.970;37.502;2023-12-04T07:05:46;20.53;;;14.70;;
32407;SDS011;18869;55.970;37.502;2023-12-04T07:08:13;17.23;;;12.00;;
32407;SDS011;18869;55.970;37.502;2023-12-04T07:10:40;18.13;;;12.50;;
32407;SDS011;18869;55.970;37.502;2023-12-04T07:13:07;19.93;;;14.10;;
32407;SDS011;18869;55.970;37.502;2023-12-04T07:15:35;16.63;;;12.60;;
32407;SDS011;18869;55.970;37.502;2023-12-04T07:18:04;21.57;;;14.33;;
32407;SDS011;18869;55.970;37.502;2023-12-04T07:20:31;20.50;;;13.50;;
32407;SDS011;18869;55.970;37.502;2023-12-04T07:23:01;20.37;;;14.23;;
32407;SDS011;18869;55.970;37.502;2023-12-04T07:25:29;19.30;;;13.73;;
32407;SDS011;18869;55.970;37.502;2023-12-04T07:27:55;17.97;;;13.83;;
32407;SDS011;18869;55.970;37.502;2023-12-04T07:30:25;20.77;;;12.83;;
32407;SDS011;18869;55.970;37.502;2023-12-04T07:32:53;17.97;;;12.03;;
32407;SDS011;18869;55.970;37.502;2023-12-04T07:35:19;18.93;;;13.30;;
32407;SDS011;18869;55.970;37.502;2023-12-04T07:37:47;16.87;;;12.63;;
32407;SDS011;18869;55.970;37.502;2023-12-04T07:40:14;20.63;;;13.60;;
32407;SDS011;18869;55.970;37.502;2023-12-04T07:56:13;24.00;;;12.47;;
32407;SDS011;18869;55.970;37.502;2023-12-04T07:58:42;21.50;;;16.03;;
32407;SDS011;18869;55.970;37.502;2023-12-04T08:01:12;18.73;;;12.27;;
32407;SDS011;18869;55.970;37.502;2023-12-04T08:09:51;21.20;;;14.47;;
32407;SDS011;18869;55.970;37.502;2023-12-04T08:12:20;19.00;;;12.93;;
32407;SDS011;18869;55.970;37.502;2023-12-04T08:14:48;15.70;;;13.03;;
32407;SDS011;18869;55.970;37.502;2023-12-04T08:17:15;18.63;;;12.70;;
32407;SDS011;18869;55.970;37.502;2023-12-04T08:19:42;17.00;;;12.10;;
32407;SDS011;18869;55.970;37.502;2023-12-04T08:22:08;21.47;;;13.13;;
32407;SDS011;18869;55.970;37.502;2023-12-04T08:24:36;22.80;;;14.87;;
32407;SDS011;18869;55.970;37.502;2023-12-04T08:27:03;20.10;;;14.00;;
32407;SDS011;18869;55.970;37.502;2023-12-04T08:29:33;20.90;;;14.77;;
32407;SDS011;18869;55.970;37.502;2023-12-04T08:32:00;26.77;;;15.17;;
32407;SDS011;18869;55.970;37.502;2023-12-04T08:34:27;24.00;;;15.30;;
32407;SDS011;18869;55.970;37.502;2023-12-04T08:40:13;26.03;;;16.20;;
32407;SDS011;18869;55.970;37.502;2023-12-04T08:42:40;33.60;;;18.53;;
32407;SDS011;18869;55.970;37.502;2023-12-04T08:45:08;31.63;;;18.10;;
32407;SDS011;18869;55.970;37.502;2023-12-04T08:47:36;35.27;;;20.67;;
32407;SDS011;18869;55.970;37.502;2023-12-04T08:50:04;29.93;;;17.37;;
32407;SDS011;18869;55.970;37.502;2023-12-04T08:52:31;25.87;;;17.03;;
32407;SDS011;18869;55.970;37.502;2023-12-04T08:54:59;23.67;;;15.53;;
32407;SDS011;18869;55.970;37.502;2023-12-04T08:57:29;27.20;;;16.10;;
32407;SDS011;18869;55.970;37.502;2023-12-04T08:59:56;25.53;;;16.57;;
32407;SDS011;18869;55.970;37.502;2023-12-04T09:02:24;26.07;;;15.97;;
32407;SDS011;18869;55.970;37.502;2023-12-04T09:04:51;22.97;;;15.23;;
32407;SDS011;18869;55.970;37.502;2023-12-04T09:07:18;27.17;;;16.03;;
32407;SDS011;18869;55.970;37.502;2023-12-04T09:09:45;22.77;;;14.17;;
32407;SDS011;18869;55.970;37.502;2023-12-04T09:12:12;27.07;;;16.90;;
32407;SDS011;18869;55.970;37.502;2023-12-04T09:14:40;30.23;;;17.73;;
32407;SDS011;18869;55.970;37.502;2023-12-04T09:17:07;29.13;;;18.63;;
32407;SDS011;18869;55.970;37.502;2023-12-04T09:19:35;24.60;;;16.43;;
32407;SDS011;18869;55.970;37.502;2023-12-04T09:22:02;25.73;;;15.30;;
32407;SDS011;18869;55.970;37.502;2023-12-04T09:24:29;24.03;;;15.83;;
32407;SDS011;18869;55.970;37.502;2023-12-04T09:26:57;23.07;;;15.40;;
32407;SDS011;18869;55.970;37.502;2023-12-04T09:29:23;23.00;;;14.20;;
32407;SDS011;18869;55.970;37.502;2023-12-04T09:31:51;22.30;;;15.37;;
32407;SDS011;18869;55.970;37.502;2023-12-04T09:34:18;24.10;;;14.33;;
32407;SDS011;18869;55.970;37.502;2023-12-04T09:36:48;21.63;;;14.70;;
32407;SDS011;18869;55.970;37.502;2023-12-04T09:39:15;22.03;;;14.83;;
32407;SDS011;18869;55.970;37.502;2023-12-04T09:41:43;18.20;;;12.90;;
32407;SDS011;18869;55.970;37.502;2023-12-04T09:44:10;20.03;;;13.27;;
32407;SDS011;18869;55.970;37.502;2023-12-04T09:46:38;20.20;;;12.60;;
32407;SDS011;18869;55.970;37.502;2023-12-04T09:49:08;19.90;;;13.93;;
32407;SDS011;18869;55.970;37.502;2023-12-04T09:51:35;23.30;;;15.37;;
32407;SDS011;18869;55.970;37.502;2023-12-04T09:54:06;22.90;;;15.07;;
32407;SDS011;18869;55.970;37.502;2023-12-04T09:56:34;23.90;;;15.93;;
32407;SDS011;18869;55.970;37.502;2023-12-04T09:59:01;21.13;;;15.07;;
32407;SDS011;18869;55.970;37.502;2023-12-04T10:01:28;20.87;;;13.90;;
32407;SDS011;18869;55.970;37.502;2023-12-04T10:03:56;19.00;;;12.83;;
32407;SDS011;18869;55.970;37.502;2023-12-04T10:06:24;19.73;;;13.40;;
32407;SDS011;18869;55.970;37.502;2023-12-04T10:08:53;22.73;;;15.10;;
32407;SDS011;18869;55.970;37.502;2023-12-04T10:11:24;26.97;;;16.77;;
32407;SDS011;18869;55.970;37.502;2023-12-04T10:13:54;30.80;;;17.77;;
32407;SDS011;18869;55.970;37.502;2023-12-04T10:16:31;35.10;;;18.53;;
32407;SDS011;18869;55.970;37.502;2023-12-04T10:19:14;21.47;;;15.10;;
32407;SDS011;18869;55.970;37.502;2023-12-04T10:21:43;20.57;;;14.47;;
32407;SDS011;18869;55.970;37.502;2023-12-04T10:24:11;19.37;;;13.07;;
32407;SDS011;18869;55.970;37.502;2023-12-04T10:26:41;19.00;;;13.90;;
32407;SDS011;18869;55.970;37.502;2023-12-04T10:29:17;19.27;;;13.27;;
32407;SDS011;18869;55.970;37.502;2023-12-04T10:31:44;20.43;;;14.40;;
32407;SDS011;18869;55.970;37.502;2023-12-04T10:34:11;18.60;;;13.37;;
32407;SDS011;18869;55.970;37.502;2023-12-04T10:36:39;20.03;;;13.93;;
32407;SDS011;18869;55.970;37.502;2023-12-04T10:39:07;20.27;;;13.97;;
32407;SDS011;18869;55.970;37.502;2023-12-04T10:41:35;18.40;;;13.80;;
32407;SDS011;18869;55.970;37.502;2023-12-04T10:44:03;19.80;;;12.83;;
32407;SDS011;18869;55.970;37.502;2023-12-04T10:46:32;19.43;;;14.07;;
32407;SDS011;18869;55.970;37.502;2023-12-04T10:48:59;21.57;;;14.87;;
32407;SDS011;18869;55.970;37.502;2023-12-04T10:51:26;22.80;;;14.57;;
32407;SDS011;18869;55.970;37.502;2023-12-04T10:53:53;18.27;;;12.73;;
32407;SDS011;18869;55.970;37.502;2023-12-04T10:56:25;22.73;;;14.63;;
32407;SDS011;18869;55.970;37.502;2023-12-04T10:58:59;18.90;;;12.60;;
32407;SDS011;18869;55.970;37.502;2023-12-04T11:01:28;22.30;;;15.47;;
32407;SDS011;18869;55.970;37.502;2023-12-04T11:03:58;21.00;;;16.00;;
32407;SDS011;18869;55.970;37.502;2023-12-04T11:06:26;24.57;;;16.13;;
32407;SDS011;18869;55.970;37.502;2023-12-04T11:08:56;22.60;;;14.63;;
32407;SDS011;18869;55.970;37.502;2023-12-04T11:11:26;20.00;;;14.33;;
32407;SDS011;18869;55.970;37.502;2023-12-04T11:13:58;20.27;;;14.00;;
32407;SDS011;18869;55.970;37.502;2023-12-04T11:16:29;22.53;;;14.03;;
32407;SDS011;18869;55.970;37.502;2023-12-04T11:19:04;21.63;;;15.40;;
32407;SDS011;18869;55.970;37.502;2023-12-04T11:21:36;20.43;;;13.27;;
32407;SDS011;18869;55.970;37.502;2023-12-04T11:24:04;20.87;;;13.93;;
32407;SDS011;18869;55.970;37.502;2023-12-04T11:26:32;22.40;;;15.07;;
32407;SDS011;18869;55.970;37.502;2023-12-04T11:29:03;24.17;;;16.13;;
32407;SDS011;18869;55.970;37.502;2023-12-04T11:31:32;23.90;;;13.87;;
32407;SDS011;18869;55.970;37.502;2023-12-04T11:34:01;20.10;;;13.77;;
32407;SDS011;18869;55.970;37.502;2023-12-04T11:36:28;24.63;;;14.43;;
32407;SDS011;18869;55.970;37.502;2023-12-04T11:38:56;22.57;;;15.50;;
32407;SDS011;18869;55.970;37.502;2023-12-04T11:41:23;21.87;;;15.10;;
32407;SDS011;18869;55.970;37.502;2023-12-04T11:43:52;23.00;;;15.93;;
32407;SDS011;18869;55.970;37.502;2023-12-04T11:46:22;23.40;;;16.20;;
32407;SDS011;18869;55.970;37.502;2023-12-04T11:48:50;18.93;;;14.20;;
32407;SDS011;18869;55.970;37.502;2023-12-04T11:54:22;23.63;;;13.63;;
32407;SDS011;18869;55.970;37.502;2023-12-04T11:56:58;21.97;;;15.03;;
32407;SDS011;18869;55.970;37.502;2023-12-04T11:59:29;21.73;;;13.47;;
32407;SDS011;18869;55.970;37.502;2023-12-04T12:02:02;19.97;;;13.43;;
32407;SDS011;18869;55.970;37.502;2023-12-04T12:04:31;23.43;;;15.43;;
32407;SDS011;18869;55.970;37.502;2023-12-04T12:06:58;23.53;;;14.77;;
32407;SDS011;18869;55.970;37.502;2023-12-04T12:09:28;21.00;;;14.07;;
32407;SDS011;18869;55.970;37.502;2023-12-04T12:14:26;22.53;;;14.27;;
32407;SDS011;18869;55.970;37.502;2023-12-04T12:16:54;19.40;;;13.70;;
32407;SDS011;18869;55.970;37.502;2023-12-04T12:19:22;21.03;;;13.77;;
32407;SDS011;18869;55.970;37.502;2023-12-04T12:21:49;20.90;;;15.23;;
32407;SDS011;18869;55.970;37.502;2023-12-04T12:24:18;22.47;;;15.13;;
32407;SDS011;18869;55.970;37.502;2023-12-04T12:26:46;21.10;;;15.33;;
32407;SDS011;18869;55.970;37.502;2023-12-04T12:29:13;24.13;;;16.17;;
32407;SDS011;18869;55.970;37.502;2023-12-04T12:31:40;23.00;;;14.37;;
32407;SDS011;18869;55.970;37.502;2023-12-04T12:34:08;20.40;;;14.27;;
32407;SDS011;18869;55.970;37.502;2023-12-04T12:36:35;20.03;;;13.40;;
32407;SDS011;18869;55.970;37.502;2023-12-04T12:39:03;19.40;;;14.20;;
32407;SDS011;18869;55.970;37.502;2023-12-04T12:41:31;20.50;;;14.17;;
32407;SDS011;18869;55.970;37.502;2023-12-04T12:43:58;20.10;;;14.33;;
32407;SDS011;18869;55.970;37.502;2023-12-04T12:46:27;16.97;;;13.27;;
32407;SDS011;18869;55.970;37.502;2023-12-04T12:48:55;17.00;;;13.60;;
32407;SDS011;18869;55.970;37.502;2023-12-04T12:51:23;21.20;;;14.67;;
32407;SDS011;18869;55.970;37.502;2023-12-04T12:53:50;18.13;;;13.13;;
32407;SDS011;18869;55.970;37.502;2023-12-04T12:56:18;20.03;;;14.57;;
32407;SDS011;18869;55.970;37.502;2023-12-04T12:58:47;19.37;;;14.73;;
32407;SDS011;18869;55.970;37.502;2023-12-04T13:01:15;22.83;;;16.47;;
32407;SDS011;18869;55.970;37.502;2023-12-04T13:03:45;21.03;;;14.03;;
32407;SDS011;18869;55.970;37.502;2023-12-04T13:06:12;25.93;;;15.73;;
32407;SDS011;18869;55.970;37.502;2023-12-04T13:08:39;22.53;;;14.20;;
32407;SDS011;18869;55.970;37.502;2023-12-04T13:11:07;21.07;;;14.20;;
32407;SDS011;18869;55.970;37.502;2023-12-04T13:13:35;18.40;;;13.30;;
32407;SDS011;18869;55.970;37.502;2023-12-04T13:16:04;19.83;;;13.87;;
32407;SDS011;18869;55.970;37.502;2023-12-04T13:18:33;25.03;;;13.63;;
32407;SDS011;18869;55.970;37.502;2023-12-04T13:21:03;21.83;;;14.50;;
32407;SDS011;18869;55.970;37.502;2023-12-04T13:23:31;19.33;;;15.63;;
32407;SDS011;18869;55.970;37.502;2023-12-04T13:26:00;24.40;;;14.93;;
32407;SDS011;18869;55.970;37.502;2023-12-04T13:28:27;23.93;;;14.87;;
32407;SDS011;18869;55.970;37.502;2023-12-04T13:30:55;21.80;;;15.40;;
32407;SDS011;18869;55.970;37.502;2023-12-04T13:33:23;22.50;;;16.00;;
32407;SDS011;18869;55.970;37.502;2023-12-04T13:35:51;24.23;;;17.03;;
32407;SDS011;18869;55.970;37.502;2023-12-04T13:38:18;20.27;;;14.03;;
32407;SDS011;18869;55.970;37.502;2023-12-04T13:40:45;23.73;;;15.40;;
32407;SDS011;18869;55.970;37.502;2023-12-04T13:43:26;22.60;;;14.30;;
32407;SDS011;18869;55.970;37.502;2023-12-04T13:46:12;25.97;;;15.57;;
32407;SDS011;18869;55.970;37.502;2023-12-04T13:48:42;28.70;;;17.30;;
32407;SDS011;18869;55.970;37.502;2023-12-04T13:51:09;31.47;;;17.23;;
32407;SDS011;18869;55.970;37.502;2023-12-04T13:53:39;24.67;;;16.87;;
32407;SDS011;18869;55.970;37.502;2023-12-04T13:56:10;27.77;;;16.53;;
32407;SDS011;18869;55.970;37.502;2023-12-04T13:58:52;28.30;;;17.70;;
32407;SDS011;18869;55.970;37.502;2023-12-04T14:01:23;26.13;;;16.20;;
32407;SDS011;18869;55.970;37.502;2023-12-04T14:03:53;25.43;;;16.63;;
32407;SDS011;18869;55.970;37.502;2023-12-04T14:06:19;27.50;;;16.20;;
32407;SDS011;18869;55.970;37.502;2023-12-04T14:08:47;27.30;;;17.47;;
32407;SDS011;18869;55.970;37.502;2023-12-04T14:11:15;25.57;;;15.53;;
32407;SDS011;18869;55.970;37.502;2023-12-04T14:13:45;29.70;;;16.23;;
32407;SDS011;18869;55.970;37.502;2023-12-04T14:16:13;28.07;;;15.90;;
32407;SDS011;18869;55.970;37.502;2023-12-04T14:18:43;26.23;;;16.73;;
32407;SDS011;18869;55.970;37.502;2023-12-04T14:21:10;30.33;;;17.50;;
32407;SDS011;18869;55.970;37.502;2023-12-04T14:23:41;25.10;;;17.27;;
32407;SDS011;18869;55.970;37.502;2023-12-04T14:26:10;29.47;;;16.40;;
32407;SDS011;18869;55.970;37.502;2023-12-04T14:28:37;27.33;;;17.10;;
32407;SDS011;18869;55.970;37.502;2023-12-04T14:31:09;26.47;;;16.23;;
32407;SDS011;18869;55.970;37.502;2023-12-04T14:33:38;29.83;;;16.53;;
32407;SDS011;18869;55.970;37.502;2023-12-04T14:36:07;29.27;;;17.63;;
32407;SDS011;18869;55.970;37.502;2023-12-04T14:38:34;28.07;;;16.27;;
32407;SDS011;18869;55.970;37.502;2023-12-04T14:41:02;31.43;;;17.47;;
32407;SDS011;18869;55.970;37.502;2023-12-04T14:43:32;26.10;;;14.97;;
32407;SDS011;18869;55.970;37.502;2023-12-04T14:46:00;25.83;;;16.03;;
32407;SDS011;18869;55.970;37.502;2023-12-04T14:48:30;25.37;;;15.13;;